sensor_id;sensor_type;location;lat;lon;timestamp;temperature;humidity
17215;DHT22;8723;51.502;6.918;2023-07-02T00:01:55;18.50;99.90
17215;DHT22;8723;51.502;6.918;2023-07-02T00:04:22;18.50;99.90
17215;DHT22;8723;51.502;6.918;2023-07-02T00:06:49;18.60;99.90
17215;DHT22;8723;51.502;6.918;2023-07-02T00:09:17;18.50;99.90
17215;DHT22;8723;51.502;6.918;2023-07-02T00:11:45;18.50;99.90
17215;DHT22;8723;51.502;6.918;2023-07-02T00:14:12;18.50;99.90
17215;DHT22;8723;51.502;6.918;2023-07-02T00:16:42;18.50;99.90
17215;DHT22;8723;51.502;6.918;2023-07-02T00:19:09;18.50;99.90
17215;DHT22;8723;51.502;6.918;2023-07-02T00:21:36;18.50;99.90
17215;DHT22;8723;51.502;6.918;2023-07-02T00:24:03;18.50;99.90
17215;DHT22;8723;51.502;6.918;2023-07-02T00:26:31;18.50;99.90
17215;DHT22;8723;51.502;6.918;2023-07-02T00:28:58;18.50;99.90
17215;DHT22;8723;51.502;6.918;2023-07-02T00:31:26;18.50;99.90
17215;DHT22;8723;51.502;6.918;2023-07-02T00:33:54;18.50;99.90
17215;DHT22;8723;51.502;6.918;2023-07-02T00:36:21;18.40;99.90
17215;DHT22;8723;51.502;6.918;2023-07-02T00:38:49;18.40;99.90
17215;DHT22;8723;51.502;6.918;2023-07-02T00:41:16;18.50;99.90
17215;DHT22;8723;51.502;6.918;2023-07-02T00:43:44;18.40;99.90
17215;DHT22;8723;51.502;6.918;2023-07-02T00:46:13;18.40;99.90
17215;DHT22;8723;51.502;6.918;2023-07-02T00:48:43;18.40;99.90
17215;DHT22;8723;51.502;6.918;2023-07-02T00:51:12;18.40;99.90
17215;DHT22;8723;51.502;6.918;2023-07-02T00:53:39;18.40;99.90
17215;DHT22;8723;51.502;6.918;2023-07-02T00:56:06;18.30;99.90
17215;DHT22;8723;51.502;6.918;2023-07-02T00:58:35;18.30;99.90
17215;DHT22;8723;51.502;6.918;2023-07-02T01:01:05;18.30;99.90
17215;DHT22;8723;51.502;6.918;2023-07-02T01:03:33;18.30;99.90
17215;DHT22;8723;51.502;6.918;2023-07-02T01:06:03;18.30;99.90
17215;DHT22;8723;51.502;6.918;2023-07-02T01:08:29;18.30;99.90
17215;DHT22;8723;51.502;6.918;2023-07-02T01:10:57;18.20;99.90
17215;DHT22;8723;51.502;6.918;2023-07-02T01:13:26;18.20;72.30
17215;DHT22;8723;51.502;6.918;2023-07-02T01:15:53;18.10;36.80
17215;DHT22;8723;51.502;6.918;2023-07-02T01:18:21;18.00;44.80
17215;DHT22;8723;51.502;6.918;2023-07-02T01:20:50;18.00;39.80
17215;DHT22;8723;51.502;6.918;2023-07-02T01:23:19;18.00;77.80
17215;DHT22;8723;51.502;6.918;2023-07-02T01:25:46;18.00;85.70
17215;DHT22;8723;51.502;6.918;2023-07-02T01:28:13;17.90;91.70
17215;DHT22;8723;51.502;6.918;2023-07-02T01:30:40;17.90;94.70
17215;DHT22;8723;51.502;6.918;2023-07-02T01:33:07;17.90;99.90
17215;DHT22;8723;51.502;6.918;2023-07-02T01:35:34;17.90;99.90
17215;DHT22;8723;51.502;6.918;2023-07-02T01:38:02;17.90;99.90
17215;DHT22;8723;51.502;6.918;2023-07-02T01:40:29;17.90;99.90
17215;DHT22;8723;51.502;6.918;2023-07-02T01:42:57;17.90;99.90
17215;DHT22;8723;51.502;6.918;2023-07-02T01:45:27;17.90;96.80
17215;DHT22;8723;51.502;6.918;2023-07-02T01:47:56;18.00;63.50
17215;DHT22;8723;51.502;6.918;2023-07-02T01:50:26;18.00;70.10
17215;DHT22;8723;51.502;6.918;2023-07-02T01:52:56;18.00;82.50
17215;DHT22;8723;51.502;6.918;2023-07-02T01:55:27;18.00;43.90
17215;DHT22;8723;51.502;6.918;2023-07-02T01:57:56;18.00;36.50
17215;DHT22;8723;51.502;6.918;2023-07-02T02:00:26;18.00;55.50
17215;DHT22;8723;51.502;6.918;2023-07-02T02:02:56;18.00;75.20
17215;DHT22;8723;51.502;6.918;2023-07-02T02:05:25;18.00;34.10
17215;DHT22;8723;51.502;6.918;2023-07-02T02:07:55;18.00;55.90
17215;DHT22;8723;51.502;6.918;2023-07-02T02:10:24;18.00;46.70
17215;DHT22;8723;51.502;6.918;2023-07-02T02:12:52;17.90;29.90
17215;DHT22;8723;51.502;6.918;2023-07-02T02:15:20;18.00;42.30
17215;DHT22;8723;51.502;6.918;2023-07-02T02:17:47;18.00;25.20
17215;DHT22;8723;51.502;6.918;2023-07-02T02:20:16;18.00;1.00
17215;DHT22;8723;51.502;6.918;2023-07-02T02:22:45;18.10;1.00
17215;DHT22;8723;51.502;6.918;2023-07-02T02:25:15;18.00;1.00
17215;DHT22;8723;51.502;6.918;2023-07-02T02:27:46;18.10;1.00
17215;DHT22;8723;51.502;6.918;2023-07-02T02:30:14;18.00;1.00
17215;DHT22;8723;51.502;6.918;2023-07-02T02:32:43;18.00;1.00
17215;DHT22;8723;51.502;6.918;2023-07-02T02:35:12;18.00;1.00
17215;DHT22;8723;51.502;6.918;2023-07-02T02:37:41;18.00;1.00
17215;DHT22;8723;51.502;6.918;2023-07-02T02:40:11;18.00;1.00
17215;DHT22;8723;51.502;6.918;2023-07-02T02:42:38;18.00;1.00
17215;DHT22;8723;51.502;6.918;2023-07-02T02:45:08;18.00;1.00
17215;DHT22;8723;51.502;6.918;2023-07-02T02:47:35;18.00;1.00
17215;DHT22;8723;51.502;6.918;2023-07-02T02:50:02;18.00;1.00
17215;DHT22;8723;51.502;6.918;2023-07-02T02:52:28;18.00;1.00
17215;DHT22;8723;51.502;6.918;2023-07-02T02:54:55;18.00;1.00
17215;DHT22;8723;51.502;6.918;2023-07-02T02:57:22;18.00;1.00
17215;DHT22;8723;51.502;6.918;2023-07-02T02:59:49;17.90;1.00
17215;DHT22;8723;51.502;6.918;2023-07-02T03:02:17;18.00;1.00
17215;DHT22;8723;51.502;6.918;2023-07-02T03:04:46;17.90;1.00
17215;DHT22;8723;51.502;6.918;2023-07-02T03:07:16;17.90;1.00
17215;DHT22;8723;51.502;6.918;2023-07-02T03:09:45;17.90;1.00
17215;DHT22;8723;51.502;6.918;2023-07-02T03:12:15;18.00;1.00
17215;DHT22;8723;51.502;6.918;2023-07-02T03:14:43;17.90;1.00
17215;DHT22;8723;51.502;6.918;2023-07-02T03:17:10;18.00;1.00
17215;DHT22;8723;51.502;6.918;2023-07-02T03:19:38;17.90;1.00
17215;DHT22;8723;51.502;6.918;2023-07-02T03:22:05;18.00;1.00
17215;DHT22;8723;51.502;6.918;2023-07-02T03:24:32;17.90;1.00
17215;DHT22;8723;51.502;6.918;2023-07-02T03:26:58;18.00;1.00
17215;DHT22;8723;51.502;6.918;2023-07-02T03:29:25;17.90;1.00
17215;DHT22;8723;51.502;6.918;2023-07-02T03:31:52;17.90;1.00
17215;DHT22;8723;51.502;6.918;2023-07-02T03:34:19;17.90;1.00
17215;DHT22;8723;51.502;6.918;2023-07-02T03:36:48;17.90;1.00
17215;DHT22;8723;51.502;6.918;2023-07-02T03:39:15;17.90;1.00
17215;DHT22;8723;51.502;6.918;2023-07-02T03:41:43;17.90;1.00
17215;DHT22;8723;51.502;6.918;2023-07-02T03:44:10;17.90;1.00
17215;DHT22;8723;51.502;6.918;2023-07-02T03:46:36;17.90;1.00
17215;DHT22;8723;51.502;6.918;2023-07-02T03:49:04;17.90;1.00
17215;DHT22;8723;51.502;6.918;2023-07-02T03:51:30;17.90;1.00
17215;DHT22;8723;51.502;6.918;2023-07-02T03:53:59;17.90;1.00
17215;DHT22;8723;51.502;6.918;2023-07-02T03:56:26;17.90;1.00
17215;DHT22;8723;51.502;6.918;2023-07-02T03:58:53;17.90;1.00
17215;DHT22;8723;51.502;6.918;2023-07-02T04:01:19;17.90;1.00
17215;DHT22;8723;51.502;6.918;2023-07-02T04:03:48;17.90;1.00
17215;DHT22;8723;51.502;6.918;2023-07-02T04:06:15;17.90;1.00
17215;DHT22;8723;51.502;6.918;2023-07-02T04:08:42;17.90;1.00
17215;DHT22;8723;51.502;6.918;2023-07-02T04:11:11;17.90;1.00
17215;DHT22;8723;51.502;6.918;2023-07-02T04:13:38;17.90;1.00
17215;DHT22;8723;51.502;6.918;2023-07-02T04:16:05;17.90;1.00
17215;DHT22;8723;51.502;6.918;2023-07-02T04:18:32;17.90;1.00
17215;DHT22;8723;51.502;6.918;2023-07-02T04:20:59;17.90;1.00
17215;DHT22;8723;51.502;6.918;2023-07-02T04:23:26;17.90;1.00
17215;DHT22;8723;51.502;6.918;2023-07-02T04:25:52;17.90;1.00
17215;DHT22;8723;51.502;6.918;2023-07-02T04:28:21;17.90;1.00
17215;DHT22;8723;51.502;6.918;2023-07-02T04:30:47;17.90;1.00
17215;DHT22;8723;51.502;6.918;2023-07-02T04:33:17;17.90;1.00
17215;DHT22;8723;51.502;6.918;2023-07-02T04:35:44;17.90;1.00
17215;DHT22;8723;51.502;6.918;2023-07-02T04:38:11;17.90;1.00
17215;DHT22;8723;51.502;6.918;2023-07-02T04:40:37;17.90;1.00
17215;DHT22;8723;51.502;6.918;2023-07-02T04:43:07;18.00;1.00
17215;DHT22;8723;51.502;6.918;2023-07-02T04:45:35;18.00;1.00
17215;DHT22;8723;51.502;6.918;2023-07-02T04:48:02;18.00;1.00
17215;DHT22;8723;51.502;6.918;2023-07-02T04:50:29;18.00;1.00
17215;DHT22;8723;51.502;6.918;2023-07-02T04:52:55;18.00;1.00
17215;DHT22;8723;51.502;6.918;2023-07-02T04:55:22;17.90;1.00
17215;DHT22;8723;51.502;6.918;2023-07-02T04:57:49;18.00;1.00
17215;DHT22;8723;51.502;6.918;2023-07-02T05:00:17;18.00;1.00
17215;DHT22;8723;51.502;6.918;2023-07-02T05:02:45;18.10;1.00
17215;DHT22;8723;51.502;6.918;2023-07-02T05:05:12;18.00;1.00
17215;DHT22;8723;51.502;6.918;2023-07-02T05:07:40;18.10;1.00
17215;DHT22;8723;51.502;6.918;2023-07-02T05:10:08;18.10;1.00
17215;DHT22;8723;51.502;6.918;2023-07-02T05:12:34;18.10;1.00
17215;DHT22;8723;51.502;6.918;2023-07-02T05:15:01;18.20;1.00
17215;DHT22;8723;51.502;6.918;2023-07-02T05:17:28;18.20;1.00
17215;DHT22;8723;51.502;6.918;2023-07-02T05:19:57;18.20;1.00
17215;DHT22;8723;51.502;6.918;2023-07-02T05:22:26;18.20;1.00
17215;DHT22;8723;51.502;6.918;2023-07-02T05:24:55;18.20;1.00
17215;DHT22;8723;51.502;6.918;2023-07-02T05:27:22;18.20;1.00
17215;DHT22;8723;51.502;6.918;2023-07-02T05:29:49;18.20;1.00
17215;DHT22;8723;51.502;6.918;2023-07-02T05:32:15;18.20;1.00
17215;DHT22;8723;51.502;6.918;2023-07-02T05:34:42;18.20;1.00
17215;DHT22;8723;51.502;6.918;2023-07-02T05:37:10;18.20;1.00
17215;DHT22;8723;51.502;6.918;2023-07-02T05:39:37;18.30;1.00
17215;DHT22;8723;51.502;6.918;2023-07-02T05:42:04;18.30;1.00
17215;DHT22;8723;51.502;6.918;2023-07-02T05:44:31;18.30;1.00
17215;DHT22;8723;51.502;6.918;2023-07-02T05:46:58;18.30;1.00
17215;DHT22;8723;51.502;6.918;2023-07-02T05:49:24;18.30;1.00
17215;DHT22;8723;51.502;6.918;2023-07-02T05:51:52;18.30;1.00
17215;DHT22;8723;51.502;6.918;2023-07-02T05:54:20;18.30;1.00
17215;DHT22;8723;51.502;6.918;2023-07-02T05:56:47;18.20;1.00
17215;DHT22;8723;51.502;6.918;2023-07-02T05:59:14;18.20;1.00
17215;DHT22;8723;51.502;6.918;2023-07-02T06:01:43;18.20;1.00
17215;DHT22;8723;51.502;6.918;2023-07-02T06:04:10;18.20;1.00
17215;DHT22;8723;51.502;6.918;2023-07-02T06:06:36;18.20;1.00
17215;DHT22;8723;51.502;6.918;2023-07-02T06:09:03;18.20;1.00
17215;DHT22;8723;51.502;6.918;2023-07-02T06:11:31;18.20;1.00
17215;DHT22;8723;51.502;6.918;2023-07-02T06:13:58;18.30;1.00
17215;DHT22;8723;51.502;6.918;2023-07-02T06:16:25;18.40;1.00
17215;DHT22;8723;51.502;6.918;2023-07-02T06:18:52;18.40;1.00
17215;DHT22;8723;51.502;6.918;2023-07-02T06:21:19;18.50;1.00
17215;DHT22;8723;51.502;6.918;2023-07-02T06:23:46;18.50;1.00
17215;DHT22;8723;51.502;6.918;2023-07-02T06:26:13;18.60;1.00
17215;DHT22;8723;51.502;6.918;2023-07-02T06:28:41;18.60;1.00
17215;DHT22;8723;51.502;6.918;2023-07-02T06:31:08;18.60;1.00
17215;DHT22;8723;51.502;6.918;2023-07-02T06:33:38;18.60;1.00
17215;DHT22;8723;51.502;6.918;2023-07-02T06:36:05;18.50;1.00
17215;DHT22;8723;51.502;6.918;2023-07-02T06:38:32;18.50;1.00
17215;DHT22;8723;51.502;6.918;2023-07-02T06:40:59;18.60;1.00
17215;DHT22;8723;51.502;6.918;2023-07-02T06:43:25;18.70;1.00
17215;DHT22;8723;51.502;6.918;2023-07-02T06:45:54;18.80;1.00
17215;DHT22;8723;51.502;6.918;2023-07-02T06:48:20;18.90;1.00
17215;DHT22;8723;51.502;6.918;2023-07-02T06:50:47;19.00;1.00
17215;DHT22;8723;51.502;6.918;2023-07-02T06:53:14;19.00;1.00
17215;DHT22;8723;51.502;6.918;2023-07-02T06:55:41;19.10;1.00
17215;DHT22;8723;51.502;6.918;2023-07-02T06:58:08;19.10;1.00
17215;DHT22;8723;51.502;6.918;2023-07-02T07:00:35;19.10;1.00
17215;DHT22;8723;51.502;6.918;2023-07-02T07:03:03;19.00;1.00
17215;DHT22;8723;51.502;6.918;2023-07-02T07:05:31;19.00;1.00
17215;DHT22;8723;51.502;6.918;2023-07-02T07:07:58;19.10;1.00
17215;DHT22;8723;51.502;6.918;2023-07-02T07:10:25;19.20;1.00
17215;DHT22;8723;51.502;6.918;2023-07-02T07:12:52;19.20;1.00
17215;DHT22;8723;51.502;6.918;2023-07-02T07:15:19;19.30;1.00
17215;DHT22;8723;51.502;6.918;2023-07-02T07:17:45;19.30;1.00
17215;DHT22;8723;51.502;6.918;2023-07-02T07:20:14;19.30;1.00
17215;DHT22;8723;51.502;6.918;2023-07-02T07:22:40;19.40;1.00
17215;DHT22;8723;51.502;6.918;2023-07-02T07:25:08;19.50;1.00
17215;DHT22;8723;51.502;6.918;2023-07-02T07:27:35;19.50;1.00
17215;DHT22;8723;51.502;6.918;2023-07-02T07:30:02;19.50;1.00
17215;DHT22;8723;51.502;6.918;2023-07-02T07:32:29;19.60;1.00
17215;DHT22;8723;51.502;6.918;2023-07-02T07:34:55;19.60;1.00
17215;DHT22;8723;51.502;6.918;2023-07-02T07:37:24;19.60;1.00
17215;DHT22;8723;51.502;6.918;2023-07-02T07:39:51;19.70;1.00
17215;DHT22;8723;51.502;6.918;2023-07-02T07:42:18;19.70;1.00
17215;DHT22;8723;51.502;6.918;2023-07-02T07:44:45;19.70;1.00
17215;DHT22;8723;51.502;6.918;2023-07-02T07:47:12;19.80;1.00
17215;DHT22;8723;51.502;6.918;2023-07-02T07:49:39;19.90;1.00
17215;DHT22;8723;51.502;6.918;2023-07-02T07:52:06;20.00;1.00
17215;DHT22;8723;51.502;6.918;2023-07-02T07:54:34;20.10;1.00
17215;DHT22;8723;51.502;6.918;2023-07-02T07:57:02;20.10;1.00
17215;DHT22;8723;51.502;6.918;2023-07-02T07:59:28;20.10;1.00
17215;DHT22;8723;51.502;6.918;2023-07-02T08:01:55;20.20;1.00
17215;DHT22;8723;51.502;6.918;2023-07-02T08:04:22;20.20;1.00
17215;DHT22;8723;51.502;6.918;2023-07-02T08:06:49;20.40;1.00
17215;DHT22;8723;51.502;6.918;2023-07-02T08:09:16;20.50;1.00
17215;DHT22;8723;51.502;6.918;2023-07-02T08:11:44;20.60;1.00
17215;DHT22;8723;51.502;6.918;2023-07-02T08:14:12;20.70;1.00
17215;DHT22;8723;51.502;6.918;2023-07-02T08:16:39;20.90;1.00
17215;DHT22;8723;51.502;6.918;2023-07-02T08:19:06;21.00;1.00
17215;DHT22;8723;51.502;6.918;2023-07-02T08:21:32;21.10;1.00
17215;DHT22;8723;51.502;6.918;2023-07-02T08:23:59;21.10;1.00
17215;DHT22;8723;51.502;6.918;2023-07-02T08:26:26;21.10;1.00
17215;DHT22;8723;51.502;6.918;2023-07-02T08:28:55;21.10;1.00
17215;DHT22;8723;51.502;6.918;2023-07-02T08:31:22;21.00;1.00
17215;DHT22;8723;51.502;6.918;2023-07-02T08:33:48;21.00;1.00
17215;DHT22;8723;51.502;6.918;2023-07-02T08:36:15;21.10;1.00
17215;DHT22;8723;51.502;6.918;2023-07-02T08:38:42;21.20;1.00
17215;DHT22;8723;51.502;6.918;2023-07-02T08:41:09;21.10;1.00
17215;DHT22;8723;51.502;6.918;2023-07-02T08:43:36;21.20;1.00
17215;DHT22;8723;51.502;6.918;2023-07-02T08:46:04;21.20;1.00
17215;DHT22;8723;51.502;6.918;2023-07-02T08:48:33;21.30;1.00
17215;DHT22;8723;51.502;6.918;2023-07-02T08:50:59;21.30;1.00
17215;DHT22;8723;51.502;6.918;2023-07-02T08:53:26;21.40;1.00
17215;DHT22;8723;51.502;6.918;2023-07-02T08:55:59;21.50;1.00
17215;DHT22;8723;51.502;6.918;2023-07-02T08:58:26;21.70;1.00
17215;DHT22;8723;51.502;6.918;2023-07-02T09:01:06;21.70;1.00
17215;DHT22;8723;51.502;6.918;2023-07-02T09:03:33;21.70;1.00
17215;DHT22;8723;51.502;6.918;2023-07-02T09:06:00;21.80;1.00
17215;DHT22;8723;51.502;6.918;2023-07-02T09:08:27;21.80;1.00
17215;DHT22;8723;51.502;6.918;2023-07-02T09:10:54;21.90;1.00
17215;DHT22;8723;51.502;6.918;2023-07-02T09:13:31;21.90;1.00
17215;DHT22;8723;51.502;6.918;2023-07-02T09:15:58;22.00;1.00
17215;DHT22;8723;51.502;6.918;2023-07-02T09:18:26;22.00;1.00
17215;DHT22;8723;51.502;6.918;2023-07-02T09:20:54;22.00;1.00
17215;DHT22;8723;51.502;6.918;2023-07-02T09:23:21;22.10;1.00
17215;DHT22;8723;51.502;6.918;2023-07-02T09:25:48;22.00;1.00
17215;DHT22;8723;51.502;6.918;2023-07-02T09:28:16;22.10;1.00
17215;DHT22;8723;51.502;6.918;2023-07-02T09:30:51;22.20;1.00
17215;DHT22;8723;51.502;6.918;2023-07-02T09:33:18;22.30;1.00
17215;DHT22;8723;51.502;6.918;2023-07-02T09:35:46;22.30;1.00
17215;DHT22;8723;51.502;6.918;2023-07-02T09:38:13;22.30;1.00
17215;DHT22;8723;51.502;6.918;2023-07-02T09:40:45;22.50;1.00
17215;DHT22;8723;51.502;6.918;2023-07-02T09:43:13;22.70;1.00
17215;DHT22;8723;51.502;6.918;2023-07-02T09:45:42;22.70;1.00
17215;DHT22;8723;51.502;6.918;2023-07-02T09:48:12;22.70;1.00
17215;DHT22;8723;51.502;6.918;2023-07-02T09:50:40;22.60;1.00
17215;DHT22;8723;51.502;6.918;2023-07-02T09:53:08;22.40;1.00
17215;DHT22;8723;51.502;6.918;2023-07-02T09:55:36;22.40;1.00
17215;DHT22;8723;51.502;6.918;2023-07-02T09:58:03;22.40;1.00
17215;DHT22;8723;51.502;6.918;2023-07-02T10:00:30;22.40;1.00
17215;DHT22;8723;51.502;6.918;2023-07-02T10:02:57;22.30;1.00
17215;DHT22;8723;51.502;6.918;2023-07-02T10:05:26;22.30;1.00
17215;DHT22;8723;51.502;6.918;2023-07-02T10:07:53;22.30;1.00
17215;DHT22;8723;51.502;6.918;2023-07-02T10:10:29;22.30;1.00
17215;DHT22;8723;51.502;6.918;2023-07-02T10:12:57;22.20;1.00
17215;DHT22;8723;51.502;6.918;2023-07-02T10:15:25;22.20;1.00
17215;DHT22;8723;51.502;6.918;2023-07-02T10:17:56;22.20;1.00
17215;DHT22;8723;51.502;6.918;2023-07-02T10:20:32;22.20;1.00
17215;DHT22;8723;51.502;6.918;2023-07-02T10:23:00;22.20;1.00
17215;DHT22;8723;51.502;6.918;2023-07-02T10:25:29;22.30;1.00
17215;DHT22;8723;51.502;6.918;2023-07-02T10:27:56;22.30;1.00
17215;DHT22;8723;51.502;6.918;2023-07-02T10:30:31;22.40;1.00
17215;DHT22;8723;51.502;6.918;2023-07-02T10:33:09;22.60;1.00
17215;DHT22;8723;51.502;6.918;2023-07-02T10:35:37;22.70;1.00
17215;DHT22;8723;51.502;6.918;2023-07-02T10:38:04;22.90;1.00
17215;DHT22;8723;51.502;6.918;2023-07-02T10:40:33;23.00;1.00
17215;DHT22;8723;51.502;6.918;2023-07-02T10:43:00;22.90;1.00
17215;DHT22;8723;51.502;6.918;2023-07-02T10:45:35;22.80;1.00
17215;DHT22;8723;51.502;6.918;2023-07-02T10:48:03;22.90;1.00
17215;DHT22;8723;51.502;6.918;2023-07-02T10:50:31;22.80;1.00
17215;DHT22;8723;51.502;6.918;2023-07-02T10:52:58;22.90;1.00
17215;DHT22;8723;51.502;6.918;2023-07-02T10:55:26;23.00;1.00
17215;DHT22;8723;51.502;6.918;2023-07-02T10:58:04;23.00;1.00
17215;DHT22;8723;51.502;6.918;2023-07-02T11:00:31;22.90;1.00
17215;DHT22;8723;51.502;6.918;2023-07-02T11:02:59;22.90;1.00
17215;DHT22;8723;51.502;6.918;2023-07-02T11:05:26;22.80;1.00
17215;DHT22;8723;51.502;6.918;2023-07-02T11:07:53;22.70;1.00
17215;DHT22;8723;51.502;6.918;2023-07-02T11:10:23;22.70;1.00
17215;DHT22;8723;51.502;6.918;2023-07-02T11:12:50;22.70;1.00
17215;DHT22;8723;51.502;6.918;2023-07-02T11:15:19;22.70;1.00
17215;DHT22;8723;51.502;6.918;2023-07-02T11:17:46;22.80;1.00
17215;DHT22;8723;51.502;6.918;2023-07-02T11:20:14;23.00;1.00
17215;DHT22;8723;51.502;6.918;2023-07-02T11:22:41;23.10;1.00
17215;DHT22;8723;51.502;6.918;2023-07-02T11:25:12;23.30;1.00
17215;DHT22;8723;51.502;6.918;2023-07-02T11:27:39;23.50;1.00
17215;DHT22;8723;51.502;6.918;2023-07-02T11:30:07;23.70;1.00
17215;DHT22;8723;51.502;6.918;2023-07-02T11:32:47;23.90;1.00
17215;DHT22;8723;51.502;6.918;2023-07-02T11:35:16;24.00;1.00
17215;DHT22;8723;51.502;6.918;2023-07-02T11:37:43;24.10;1.00
17215;DHT22;8723;51.502;6.918;2023-07-02T11:40:11;24.30;1.00
17215;DHT22;8723;51.502;6.918;2023-07-02T11:42:39;24.40;1.00
17215;DHT22;8723;51.502;6.918;2023-07-02T11:45:06;24.10;1.00
17215;DHT22;8723;51.502;6.918;2023-07-02T11:47:33;23.90;1.00
17215;DHT22;8723;51.502;6.918;2023-07-02T11:50:02;23.90;1.00
17215;DHT22;8723;51.502;6.918;2023-07-02T11:52:28;23.90;1.00
17215;DHT22;8723;51.502;6.918;2023-07-02T11:54:55;23.80;1.00
17215;DHT22;8723;51.502;6.918;2023-07-02T11:57:22;23.70;1.00
17215;DHT22;8723;51.502;6.918;2023-07-02T11:59:48;23.90;1.00
17215;DHT22;8723;51.502;6.918;2023-07-02T12:02:15;24.00;1.00
17215;DHT22;8723;51.502;6.918;2023-07-02T12:04:42;24.00;1.00
17215;DHT22;8723;51.502;6.918;2023-07-02T12:07:10;24.00;1.00
17215;DHT22;8723;51.502;6.918;2023-07-02T12:09:38;24.20;1.00
17215;DHT22;8723;51.502;6.918;2023-07-02T12:12:05;24.30;1.00
17215;DHT22;8723;51.502;6.918;2023-07-02T12:14:32;24.50;1.00
17215;DHT22;8723;51.502;6.918;2023-07-02T12:16:59;24.80;1.00
17215;DHT22;8723;51.502;6.918;2023-07-02T12:19:25;24.90;1.00
17215;DHT22;8723;51.502;6.918;2023-07-02T12:21:52;24.90;1.00
17215;DHT22;8723;51.502;6.918;2023-07-02T12:24:20;24.80;1.00
17215;DHT22;8723;51.502;6.918;2023-07-02T12:26:47;24.70;1.00
17215;DHT22;8723;51.502;6.918;2023-07-02T12:29:13;24.50;1.00
17215;DHT22;8723;51.502;6.918;2023-07-02T12:31:40;24.30;1.00
17215;DHT22;8723;51.502;6.918;2023-07-02T12:34:06;24.30;1.00
17215;DHT22;8723;51.502;6.918;2023-07-02T12:36:33;24.30;1.00
17215;DHT22;8723;51.502;6.918;2023-07-02T12:39:00;24.50;1.00
17215;DHT22;8723;51.502;6.918;2023-07-02T12:41:28;24.70;1.00
17215;DHT22;8723;51.502;6.918;2023-07-02T12:43:55;24.70;1.00
17215;DHT22;8723;51.502;6.918;2023-07-02T12:46:22;25.10;1.00
17215;DHT22;8723;51.502;6.918;2023-07-02T12:48:49;25.40;1.00
17215;DHT22;8723;51.502;6.918;2023-07-02T12:51:15;25.70;1.00
17215;DHT22;8723;51.502;6.918;2023-07-02T12:53:42;25.60;1.00
17215;DHT22;8723;51.502;6.918;2023-07-02T12:56:09;25.40;1.00
17215;DHT22;8723;51.502;6.918;2023-07-02T12:58:37;25.10;1.00
17215;DHT22;8723;51.502;6.918;2023-07-02T13:01:03;25.10;1.00
17215;DHT22;8723;51.502;6.918;2023-07-02T13:03:30;25.00;1.00
17215;DHT22;8723;51.502;6.918;2023-07-02T13:05:57;25.30;1.00
17215;DHT22;8723;51.502;6.918;2023-07-02T13:08:23;25.40;1.00
17215;DHT22;8723;51.502;6.918;2023-07-02T13:10:50;25.40;1.00
17215;DHT22;8723;51.502;6.918;2023-07-02T13:13:17;25.30;1.00
17215;DHT22;8723;51.502;6.918;2023-07-02T13:15:45;25.50;1.00
17215;DHT22;8723;51.502;6.918;2023-07-02T13:18:11;25.70;1.00
17215;DHT22;8723;51.502;6.918;2023-07-02T13:20:38;25.90;1.00
17215;DHT22;8723;51.502;6.918;2023-07-02T13:23:04;26.20;1.00
17215;DHT22;8723;51.502;6.918;2023-07-02T13:25:31;26.30;1.00
17215;DHT22;8723;51.502;6.918;2023-07-02T13:27:58;26.50;1.00
17215;DHT22;8723;51.502;6.918;2023-07-02T13:30:24;27.00;1.00
17215;DHT22;8723;51.502;6.918;2023-07-02T13:32:55;27.50;1.00
17215;DHT22;8723;51.502;6.918;2023-07-02T13:35:21;27.40;1.00
17215;DHT22;8723;51.502;6.918;2023-07-02T13:37:48;26.90;1.00
17215;DHT22;8723;51.502;6.918;2023-07-02T13:40:15;26.50;1.00
17215;DHT22;8723;51.502;6.918;2023-07-02T13:42:41;26.10;1.00
17215;DHT22;8723;51.502;6.918;2023-07-02T13:45:08;26.00;1.00
17215;DHT22;8723;51.502;6.918;2023-07-02T13:47:36;26.70;1.00
17215;DHT22;8723;51.502;6.918;2023-07-02T13:50:05;27.60;1.00
17215;DHT22;8723;51.502;6.918;2023-07-02T13:52:31;28.10;1.00
17215;DHT22;8723;51.502;6.918;2023-07-02T13:54:58;28.60;1.00
17215;DHT22;8723;51.502;6.918;2023-07-02T13:57:25;28.70;1.00
17215;DHT22;8723;51.502;6.918;2023-07-02T13:59:53;28.70;1.00
17215;DHT22;8723;51.502;6.918;2023-07-02T14:02:20;28.40;1.00
17215;DHT22;8723;51.502;6.918;2023-07-02T14:04:47;27.70;1.00
17215;DHT22;8723;51.502;6.918;2023-07-02T14:07:13;27.10;1.00
17215;DHT22;8723;51.502;6.918;2023-07-02T14:09:40;26.70;1.00
17215;DHT22;8723;51.502;6.918;2023-07-02T14:12:07;26.30;1.00
17215;DHT22;8723;51.502;6.918;2023-07-02T14:14:34;25.90;1.00
17215;DHT22;8723;51.502;6.918;2023-07-02T14:17:02;25.70;1.00
17215;DHT22;8723;51.502;6.918;2023-07-02T14:19:29;25.50;1.00
17215;DHT22;8723;51.502;6.918;2023-07-02T14:21:55;25.20;1.00
17215;DHT22;8723;51.502;6.918;2023-07-02T14:24:22;25.20;1.00
17215;DHT22;8723;51.502;6.918;2023-07-02T14:26:48;25.20;1.00
17215;DHT22;8723;51.502;6.918;2023-07-02T14:29:15;25.10;1.00
17215;DHT22;8723;51.502;6.918;2023-07-02T14:31:42;24.90;1.00
17215;DHT22;8723;51.502;6.918;2023-07-02T14:34:10;24.90;1.00
17215;DHT22;8723;51.502;6.918;2023-07-02T14:36:36;24.80;1.00
17215;DHT22;8723;51.502;6.918;2023-07-02T14:39:03;24.80;1.00
17215;DHT22;8723;51.502;6.918;2023-07-02T14:41:30;24.80;1.00
17215;DHT22;8723;51.502;6.918;2023-07-02T14:44:00;24.80;1.00
17215;DHT22;8723;51.502;6.918;2023-07-02T14:46:27;24.70;1.00
17215;DHT22;8723;51.502;6.918;2023-07-02T14:48:54;24.80;1.00
17215;DHT22;8723;51.502;6.918;2023-07-02T14:51:22;24.90;1.00
17215;DHT22;8723;51.502;6.918;2023-07-02T14:53:49;24.80;1.00
17215;DHT22;8723;51.502;6.918;2023-07-02T14:56:16;24.90;1.00
17215;DHT22;8723;51.502;6.918;2023-07-02T14:58:43;24.80;1.00
17215;DHT22;8723;51.502;6.918;2023-07-02T15:01:10;24.90;1.00
17215;DHT22;8723;51.502;6.918;2023-07-02T15:03:37;24.80;1.00
17215;DHT22;8723;51.502;6.918;2023-07-02T15:06:07;24.80;1.00
17215;DHT22;8723;51.502;6.918;2023-07-02T15:08:36;24.70;1.00
17215;DHT22;8723;51.502;6.918;2023-07-02T15:11:02;24.60;1.00
17215;DHT22;8723;51.502;6.918;2023-07-02T15:13:29;24.50;1.00
17215;DHT22;8723;51.502;6.918;2023-07-02T15:15:56;24.40;1.00
17215;DHT22;8723;51.502;6.918;2023-07-02T15:18:23;24.40;1.00
17215;DHT22;8723;51.502;6.918;2023-07-02T15:20:49;24.30;1.00
17215;DHT22;8723;51.502;6.918;2023-07-02T15:23:16;24.30;1.00
17215;DHT22;8723;51.502;6.918;2023-07-02T15:25:49;24.30;1.00
17215;DHT22;8723;51.502;6.918;2023-07-02T15:28:16;24.20;1.00
17215;DHT22;8723;51.502;6.918;2023-07-02T15:30:43;24.30;1.00
17215;DHT22;8723;51.502;6.918;2023-07-02T15:33:09;24.30;1.00
17215;DHT22;8723;51.502;6.918;2023-07-02T15:35:36;24.30;1.00
17215;DHT22;8723;51.502;6.918;2023-07-02T15:38:03;24.20;1.00
17215;DHT22;8723;51.502;6.918;2023-07-02T15:40:29;24.20;1.00
17215;DHT22;8723;51.502;6.918;2023-07-02T15:42:57;24.30;1.00
17215;DHT22;8723;51.502;6.918;2023-07-02T15:45:24;24.30;1.00
17215;DHT22;8723;51.502;6.918;2023-07-02T15:47:50;24.30;1.00
17215;DHT22;8723;51.502;6.918;2023-07-02T15:50:17;24.30;1.00
17215;DHT22;8723;51.502;6.918;2023-07-02T15:52:44;24.40;1.00
17215;DHT22;8723;51.502;6.918;2023-07-02T15:55:10;24.40;1.00
17215;DHT22;8723;51.502;6.918;2023-07-02T15:57:37;24.40;1.00
17215;DHT22;8723;51.502;6.918;2023-07-02T16:00:05;24.30;1.00
17215;DHT22;8723;51.502;6.918;2023-07-02T16:02:33;24.10;1.00